Fort Payne, AL

8:00 PM CDT on September 22, 2017 (GMT -0500)
Fort Payne

Weather History for K4A9 - January, 2013

Change the Weather History Date:

Thursday, January 24, 2013

  Actual Average (KRMG) Record (KRMG)
Temperature  
Mean Temperature 40 °F -  
Max Temperature 48 °F 51 °F 69 °F (2002)
Min Temperature 32 °F 31 °F 9 °F (2014)
Degree Days  
Heating Degree Days 25    
Moisture  
Dew Point 20 °F    
Average Humidity 45    
Maximum Humidity 71    
Minimum Humidity 20    
Precipitation  
Precipitation 0.00 in - - ()
Sea Level Pressure  
Sea Level Pressure 30.28 in    
Wind  
Wind Speed 6 mph (North)    
Max Wind Speed 13 mph    
Max Gust Speed 18 mph    
Visibility 10 miles    
Events      
Averages and records for this station are not official NWS values.
T = Trace of Precipitation, MM = Missing Value Source: NWS Daily Summary

Daily Weather History Graph

Daily Weather History Graph

Search for Another Location

Airport or City:

Trip Planner

Search our weather history database for the weather conditions in past years. The results will help you decide how hot, cold, wet, or windy it might be!

Date:

Astronomy

Jan. 24, 2013 Rise Set
Actual Time 6:45 AM CST 5:04 PM CST
Civil Twilight 6:18 AM CST 5:31 PM CST
Nautical Twilight 5:48 AM CST 6:02 PM CST
Astronomical Twilight 5:18 AM CST 6:32 PM CST
Moon 3:07 PM CST (1/24) 4:41 AM CST (1/24)
Length of Visible Light 11h 12m
Length of Day
10h 19m
Waxing Gibbous, 94% of the Moon is Illuminated
Jan 24
Waxing Gibbous
Jan 26
Full
Feb 3
Last Quarter
Feb 10
New
Feb 17
First Quarter

Hourly Weather History & Observations

Time (CST) Temp. Windchill Dew Point Humidity Pressure Visibility Wind Dir Wind Speed Gust Speed Precip Events Conditions
12:15 AM 48.2 °F - 35.6 °F 62% 30.19 in 10.0 mi WSW 4.6 mph - N/A   Overcast
12:35 AM 48.2 °F - 35.6 °F 62% 30.18 in 10.0 mi WSW 5.8 mph - N/A   Overcast
12:55 AM 48.2 °F - 35.6 °F 62% 30.19 in 10.0 mi SW 3.5 mph - N/A   Overcast
1:15 AM 48.2 °F - 35.6 °F 62% 30.18 in 10.0 mi SSW 5.8 mph - N/A   Overcast
1:35 AM 48.2 °F - 35.6 °F 62% 30.18 in 10.0 mi SW 4.6 mph - N/A   Overcast
1:55 AM 48.2 °F - 35.6 °F 62% 30.18 in 10.0 mi SW 3.5 mph - N/A   Overcast
2:15 AM 46.4 °F - 35.6 °F 66% 30.18 in 10.0 mi Calm Calm - N/A   Overcast
2:35 AM 46.4 °F 45.2 °F 35.6 °F 66% 30.18 in 10.0 mi South 3.5 mph - N/A   Overcast
2:55 AM 46.4 °F 43.5 °F 37.4 °F 71% 30.18 in 10.0 mi SW 5.8 mph - N/A   Overcast
3:15 AM 46.4 °F - 35.6 °F 66% 30.18 in 10.0 mi Calm Calm - N/A   Overcast
3:35 AM 46.4 °F - 37.4 °F 71% 30.18 in 10.0 mi Calm Calm - N/A   Overcast
3:55 AM 46.4 °F - 37.4 °F 71% 30.18 in 10.0 mi Calm Calm - N/A   Overcast
4:15 AM 46.4 °F - 37.4 °F 71% 30.18 in 10.0 mi Calm Calm - N/A   Overcast
4:35 AM 48.2 °F - 37.4 °F 66% 30.18 in 10.0 mi NW 3.5 mph - N/A   Overcast
4:55 AM 46.4 °F 42.4 °F 35.6 °F 66% 30.19 in 10.0 mi North 8.1 mph - N/A   Overcast
5:15 AM 46.4 °F 43.5 °F 35.6 °F 66% 30.19 in 10.0 mi NNW 5.8 mph - N/A   Overcast
5:35 AM 46.4 °F 41.9 °F 33.8 °F 62% 30.21 in 10.0 mi North 9.2 mph - N/A   Overcast
5:55 AM 46.4 °F 41.1 °F 32.0 °F 57% 30.22 in 10.0 mi North 11.5 mph 18.4 mph N/A   Overcast
6:15 AM 44.6 °F 39.7 °F 32.0 °F 61% 30.23 in 10.0 mi NNW 9.2 mph - N/A   Overcast
6:35 AM 42.8 °F 39.3 °F 32.0 °F 66% 30.24 in 10.0 mi NNW 5.8 mph - N/A   Mostly Cloudy
6:55 AM 42.8 °F 38.0 °F 32.0 °F 66% 30.25 in 10.0 mi North 8.1 mph - N/A   Scattered Clouds
7:15 AM 42.8 °F 38.6 °F 30.2 °F 61% 30.26 in 10.0 mi North 6.9 mph - N/A   Scattered Clouds
7:35 AM 41.0 °F 35.2 °F 30.2 °F 65% 30.28 in 10.0 mi NNW 9.2 mph - N/A   Clear
7:55 AM 41.0 °F 35.2 °F 28.4 °F 61% 30.28 in 10.0 mi NNW 9.2 mph - N/A   Scattered Clouds
8:15 AM 41.0 °F 35.8 °F 28.4 °F 61% 30.30 in 10.0 mi NNW 8.1 mph - N/A   Scattered Clouds
8:35 AM 41.0 °F 35.8 °F 26.6 °F 57% 30.30 in 10.0 mi NW 8.1 mph - N/A   Clear
8:55 AM 41.0 °F 35.2 °F 26.6 °F 57% 30.31 in 10.0 mi North 9.2 mph - N/A   Clear
9:15 AM 42.8 °F 37.5 °F 26.6 °F 53% 30.33 in 10.0 mi NE 9.2 mph - N/A   Clear
9:35 AM 42.8 °F 36.2 °F 19.4 °F 39% 30.32 in 10.0 mi NNE 12.7 mph - N/A   Clear
9:55 AM 42.8 °F 37.0 °F 14.0 °F 31% 30.33 in 10.0 mi North 10.4 mph 16.1 mph N/A   Clear
10:15 AM 42.8 °F 37.5 °F 14.0 °F 31% 30.33 in 10.0 mi North 9.2 mph - N/A   Clear
10:35 AM 42.8 °F 38.0 °F 14.0 °F 31% 30.33 in 10.0 mi NNW 8.1 mph - N/A   Clear
10:55 AM 44.6 °F 39.7 °F 14.0 °F 29% 30.33 in 10.0 mi NNW 9.2 mph - N/A   Clear
11:15 AM 44.6 °F 38.8 °F 17.6 °F 34% 30.33 in 10.0 mi NNE 11.5 mph 16.1 mph N/A   Clear
11:35 AM 44.6 °F 39.2 °F 14.0 °F 29% 30.33 in 10.0 mi NNE 10.4 mph - N/A   Clear
11:55 AM 44.6 °F 39.2 °F 14.0 °F 29% 30.32 in 10.0 mi NNE 10.4 mph 18.4 mph N/A   Clear
12:15 PM 44.6 °F 39.2 °F 12.2 °F 27% 30.32 in 10.0 mi North 10.4 mph - N/A   Clear
12:35 PM 44.6 °F 38.8 °F 12.2 °F 27% 30.32 in 10.0 mi NNE 11.5 mph 16.1 mph N/A   Clear
12:55 PM 46.4 °F 42.9 °F 12.2 °F 25% 30.32 in 10.0 mi NNE 6.9 mph 17.3 mph N/A   Clear
1:15 PM 46.4 °F 41.1 °F 12.2 °F 25% 30.31 in 10.0 mi NNW 11.5 mph 16.1 mph N/A   Clear
1:35 PM 46.4 °F 41.9 °F 10.4 °F 23% 30.30 in 10.0 mi NNE 9.2 mph - N/A   Clear
1:55 PM 46.4 °F 42.9 °F 10.4 °F 23% 30.30 in 10.0 mi NNW 6.9 mph - N/A   Clear
2:15 PM 48.2 °F - 10.4 °F 22% 30.29 in 10.0 mi NNW 9.2 mph - N/A   Clear
2:35 PM 46.4 °F 42.9 °F 8.6 °F 22% 30.29 in 10.0 mi NE 6.9 mph - N/A   Clear
2:55 PM 48.2 °F - 8.6 °F 20% 30.29 in 10.0 mi NE 8.1 mph - N/A   Clear
3:15 PM 46.4 °F 42.9 °F 8.6 °F 22% 30.30 in 10.0 mi North 6.9 mph - N/A   Clear
3:35 PM 46.4 °F 42.4 °F 10.4 °F 23% 30.30 in 10.0 mi NNE 8.1 mph - N/A   Clear
3:55 PM 46.4 °F 43.5 °F 8.6 °F 22% 30.30 in 10.0 mi North 5.8 mph - N/A   Clear
4:15 PM 44.6 °F 42.2 °F 12.2 °F 27% 30.30 in 10.0 mi NE 4.6 mph - N/A   Clear
4:35 PM 44.6 °F 41.4 °F 10.4 °F 25% 30.30 in 10.0 mi NE 5.8 mph - N/A   Clear
4:55 PM 42.8 °F 41.1 °F 12.2 °F 29% 30.31 in 10.0 mi NE 3.5 mph - N/A   Clear
5:15 PM 42.8 °F 39.3 °F 12.2 °F 29% 30.32 in 10.0 mi NE 5.8 mph - N/A   Clear
5:35 PM 41.0 °F 37.1 °F 17.6 °F 39% 30.33 in 10.0 mi ENE 5.8 mph - N/A   Clear
5:55 PM 39.2 °F 35.0 °F 14.0 °F 36% 30.33 in 10.0 mi East 5.8 mph - N/A   Clear
6:15 PM 37.4 °F 30.8 °F 10.4 °F 33% 30.34 in 10.0 mi ENE 9.2 mph - N/A   Clear
6:35 PM 35.6 °F 29.9 °F 10.4 °F 35% 30.34 in 10.0 mi NE 6.9 mph - N/A   Clear
6:55 PM 35.6 °F 32.8 °F 8.6 °F 33% 30.34 in 10.0 mi ENE 3.5 mph - N/A   Clear
7:15 PM 35.6 °F 32.8 °F 8.6 °F 33% 30.34 in 10.0 mi ENE 3.5 mph - N/A   Clear
7:35 PM 33.8 °F 30.8 °F 12.2 °F 41% 30.35 in 10.0 mi NE 3.5 mph - N/A   Clear
7:55 PM 33.8 °F - 10.4 °F 38% 30.34 in 10.0 mi Calm Calm - N/A   Clear
8:15 PM 33.8 °F 30.8 °F 12.2 °F 41% 30.33 in 10.0 mi NE 3.5 mph - N/A   Scattered Clouds
8:35 PM 32.0 °F - 12.2 °F 44% 30.33 in 10.0 mi Calm Calm - N/A   Clear
8:55 PM 32.0 °F - 12.2 °F 44% 30.33 in 10.0 mi Calm Calm - N/A   Scattered Clouds
9:15 PM 32.0 °F - 14.0 °F 48% 30.33 in 10.0 mi Calm Calm - N/A   Mostly Cloudy
9:35 PM 32.0 °F - 14.0 °F 48% 30.33 in 10.0 mi Calm Calm - N/A   Overcast
9:55 PM 32.0 °F 28.7 °F 14.0 °F 48% 30.32 in 10.0 mi NNE 3.5 mph - N/A   Overcast
10:15 PM 33.8 °F - 14.0 °F 44% 30.33 in 10.0 mi Calm Calm - N/A   Overcast
10:35 PM 33.8 °F 29.6 °F 12.2 °F 41% 30.34 in 10.0 mi NE 4.6 mph - N/A   Overcast
10:55 PM 33.8 °F 29.6 °F 10.4 °F 38% 30.33 in 10.0 mi NNE 4.6 mph - N/A   Overcast
11:15 PM 33.8 °F 27.7 °F 12.2 °F 41% 30.31 in 10.0 mi North 6.9 mph - N/A   Mostly Cloudy
11:35 PM 33.8 °F - 12.2 °F 41% 30.31 in 10.0 mi Calm Calm - N/A   Overcast
11:55 PM 33.8 °F - 10.4 °F 38% 30.31 in 10.0 mi Calm Calm - N/A   Overcast